Time;durP1;ratioP1;P1;durP2;ratioP2;P2;SDS_P1;SDS_P2;PMS_P1;PMS_P2;Temp;Humidity;BMP_temperature;BMP_pressure;BME280_temperature;BME280_humidity;BME280_pressure;Samples;Min_cycle;Max_cycle;Signal;HPM_P1;HPM_P2
2021/06/20 00:00:39;;;;;;;2.35;1.92;;;27.00;50.70;;;;;;5091006;28;20056;-60
2021/06/20 00:03:06;;;;;;;2.35;2.15;;;27.00;50.80;;;;;;5091781;28;20020;-58
2021/06/20 00:05:35;;;;;;;2.25;2.05;;;27.00;50.90;;;;;;5089923;28;20060;-58
2021/06/20 00:08:08;;;;;;;1.95;1.77;;;27.00;51.00;;;;;;5092766;28;20028;-58
2021/06/20 00:10:36;;;;;;;2.50;2.17;;;27.00;51.00;;;;;;5090804;28;20148;-62
2021/06/20 00:13:03;;;;;;;2.20;2.00;;;27.00;51.10;;;;;;5090818;28;20131;-62
2021/06/20 00:15:30;;;;;;;2.10;1.90;;;27.00;51.20;;;;;;5091486;28;20103;-58
2021/06/20 00:17:56;;;;;;;2.67;2.25;;;27.00;51.30;;;;;;5091884;28;20090;-56
2021/06/20 00:20:25;;;;;;;2.40;2.20;;;27.00;51.30;;;;;;5089088;28;20490;-58
2021/06/20 00:22:51;;;;;;;2.17;1.83;;;27.00;51.40;;;;;;5091307;28;20106;-56
2021/06/20 00:25:17;;;;;;;2.25;2.05;;;27.00;51.40;;;;;;5081751;28;20405;-60
2021/06/20 00:27:44;;;;;;;2.53;2.33;;;27.00;51.50;;;;;;5092347;28;20088;-57
2021/06/20 00:30:13;;;;;;;2.30;2.10;;;26.90;51.50;;;;;;5090838;28;20052;-57
2021/06/20 00:32:39;;;;;;;2.10;1.90;;;27.00;51.60;;;;;;5090976;28;20112;-60
2021/06/20 00:35:06;;;;;;;2.28;2.08;;;27.00;51.70;;;;;;5094452;28;20106;-59
2021/06/20 00:37:32;;;;;;;1.85;1.73;;;27.00;51.70;;;;;;5096288;28;20316;-60
2021/06/20 00:39:58;;;;;;;2.20;2.00;;;27.00;51.80;;;;;;5095177;28;20115;-58
2021/06/20 00:42:24;;;;;;;2.17;1.98;;;27.00;51.80;;;;;;5092249;28;20485;-56
2021/06/20 00:44:51;;;;;;;2.22;2.00;;;27.00;51.80;;;;;;5094838;28;20028;-62
2021/06/20 00:47:18;;;;;;;2.30;2.10;;;27.00;51.90;;;;;;5094930;28;20028;-60
2021/06/20 00:49:45;;;;;;;2.40;2.20;;;27.00;52.00;;;;;;5094447;28;20038;-60
2021/06/20 00:52:12;;;;;;;2.25;2.05;;;26.90;51.90;;;;;;5095580;28;20024;-58
2021/06/20 00:54:46;;;;;;;2.17;2.03;;;26.90;52.00;;;;;;5092864;28;20033;-61
2021/06/20 00:57:17;;;;;;;2.50;2.30;;;26.90;52.00;;;;;;5096063;28;20077;-59
2021/06/20 00:59:44;;;;;;;2.25;2.05;;;27.00;52.20;;;;;;5091905;28;20067;-60
2021/06/20 01:02:11;;;;;;;2.55;2.35;;;26.90;52.20;;;;;;5091703;28;20502;-60
2021/06/20 01:04:38;;;;;;;2.08;1.98;;;26.90;52.30;;;;;;5095313;28;20047;-60
2021/06/20 01:07:04;;;;;;;2.80;2.45;;;26.90;52.30;;;;;;5095107;28;20507;-58
2021/06/20 01:09:30;;;;;;;2.50;2.30;;;26.90;52.40;;;;;;5094616;28;20478;-56
2021/06/20 01:11:56;;;;;;;2.80;2.50;;;26.90;52.50;;;;;;5095006;28;20024;-55
2021/06/20 01:14:22;;;;;;;2.45;2.25;;;26.90;52.60;;;;;;5094900;28;20040;-58
2021/06/20 01:16:50;;;;;;;2.20;2.00;;;26.90;52.60;;;;;;5094474;28;20028;-58
2021/06/20 01:19:17;;;;;;;2.53;2.33;;;26.90;52.70;;;;;;5094058;28;20115;-59
2021/06/20 01:21:44;;;;;;;2.33;2.13;;;26.90;52.70;;;;;;5093595;28;20068;-60
2021/06/20 01:24:10;;;;;;;2.10;1.95;;;26.90;52.90;;;;;;5093233;28;20032;-55
2021/06/20 01:26:36;;;;;;;2.67;2.15;;;26.90;52.90;;;;;;5094901;28;20111;-58
2021/06/20 01:29:04;;;;;;;1.98;1.88;;;26.90;53.00;;;;;;5093919;28;20421;-57
2021/06/20 01:31:32;;;;;;;2.38;2.00;;;26.90;53.00;;;;;;5094383;28;20028;-56
2021/06/20 01:33:58;;;;;;;2.42;2.17;;;26.90;53.10;;;;;;5094523;28;20099;-58
2021/06/20 01:36:24;;;;;;;2.30;2.10;;;26.90;53.20;;;;;;5092611;28;20103;-59
2021/06/20 01:38:50;;;;;;;2.38;2.15;;;26.90;53.30;;;;;;5094816;28;20071;-59
2021/06/20 01:41:16;;;;;;;2.00;1.90;;;26.90;53.30;;;;;;5092546;28;20027;-61
2021/06/20 01:43:42;;;;;;;2.15;1.95;;;26.90;53.40;;;;;;5094887;28;20020;-60
2021/06/20 01:46:08;;;;;;;2.63;2.42;;;26.90;53.50;;;;;;5091949;28;20071;-60
2021/06/20 01:48:36;;;;;;;2.28;2.08;;;26.90;53.50;;;;;;5094806;28;20059;-59
2021/06/20 01:51:04;;;;;;;3.05;2.67;;;26.90;53.60;;;;;;5092784;28;20036;-58
2021/06/20 01:53:30;;;;;;;2.35;2.15;;;26.90;53.60;;;;;;5093816;28;20490;-59
2021/06/20 01:55:56;;;;;;;2.45;2.25;;;26.90;53.60;;;;;;5093381;28;20432;-59
2021/06/20 01:58:22;;;;;;;2.90;2.60;;;26.90;53.70;;;;;;5094046;28;20149;-58
2021/06/20 02:00:50;;;;;;;2.17;1.98;;;26.90;53.70;;;;;;5092844;28;20307;-59
2021/06/20 02:03:27;;;;;;;3.63;2.50;;;26.90;53.80;;;;;;5092174;28;20024;-61
2021/06/20 02:06:00;;;;;;;2.33;2.13;;;26.90;53.80;;;;;;5083780;28;20070;-55
2021/06/20 02:08:26;;;;;;;2.22;2.03;;;26.90;53.90;;;;;;5091425;28;20039;-60
2021/06/20 02:10:55;;;;;;;2.40;2.20;;;26.90;53.90;;;;;;5092608;28;20123;-55
2021/06/20 02:13:24;;;;;;;2.25;2.05;;;26.90;54.00;;;;;;5093866;28;20351;-60
2021/06/20 02:15:53;;;;;;;2.47;2.25;;;26.90;54.00;;;;;;5093270;28;20400;-55
2021/06/20 02:18:20;;;;;;;3.25;2.70;;;26.90;54.10;;;;;;5094225;28;20047;-61
2021/06/20 02:20:46;;;;;;;2.63;2.42;;;26.90;54.10;;;;;;5090321;28;20055;-60
2021/06/20 02:23:13;;;;;;;2.80;2.38;;;26.90;54.20;;;;;;5093899;28;20031;-60
2021/06/20 02:25:41;;;;;;;2.33;2.13;;;26.90;54.20;;;;;;5091849;28;20032;-57
2021/06/20 02:28:07;;;;;;;2.72;2.45;;;26.90;54.20;;;;;;5093615;28;20043;-57
2021/06/20 02:30:33;;;;;;;2.30;2.10;;;26.90;54.30;;;;;;5091926;28;20024;-57
2021/06/20 02:32:59;;;;;;;2.88;2.55;;;26.90;54.30;;;;;;5094015;28;20435;-57
2021/06/20 02:35:25;;;;;;;2.65;2.40;;;26.90;54.30;;;;;;5092366;28;20343;-55
2021/06/20 02:37:52;;;;;;;2.35;2.10;;;26.90;54.40;;;;;;5089223;28;20028;-59
2021/06/20 02:40:19;;;;;;;2.88;2.42;;;26.90;54.40;;;;;;5091719;28;20359;-56
2021/06/20 02:42:46;;;;;;;2.80;2.50;;;26.90;54.40;;;;;;5091385;28;20093;-55
2021/06/20 02:45:14;;;;;;;2.63;2.42;;;26.90;54.50;;;;;;5092525;28;20061;-55
2021/06/20 02:47:40;;;;;;;2.63;2.33;;;26.90;54.60;;;;;;5092573;28;20024;-57
2021/06/20 02:50:07;;;;;;;2.53;2.33;;;26.90;54.60;;;;;;5090135;28;20081;-52
2021/06/20 02:52:33;;;;;;;2.38;2.17;;;26.90;54.70;;;;;;5093452;28;20304;-59
2021/06/20 02:55:01;;;;;;;2.78;2.55;;;26.90;54.70;;;;;;5091397;28;20107;-59
2021/06/20 02:57:32;;;;;;;3.13;2.83;;;26.90;54.70;;;;;;5093010;28;20110;-56
2021/06/20 03:00:01;;;;;;;2.60;2.40;;;26.90;54.80;;;;;;5091312;28;20066;-60
2021/06/20 03:02:27;;;;;;;3.80;2.78;;;26.90;54.80;;;;;;5090906;28;20359;-58
2021/06/20 03:04:55;;;;;;;3.00;2.60;;;26.90;54.90;;;;;;5090703;28;20475;-53
2021/06/20 03:07:21;;;;;;;2.60;2.40;;;26.90;54.80;;;;;;5092500;28;20063;-55
2021/06/20 03:09:47;;;;;;;2.88;2.63;;;26.90;54.90;;;;;;5093540;28;20031;-59
2021/06/20 03:12:14;;;;;;;2.97;2.78;;;26.90;54.90;;;;;;5093208;28;20036;-58
2021/06/20 03:14:41;;;;;;;3.20;2.90;;;26.90;55.00;;;;;;5090245;28;20060;-60
2021/06/20 03:17:07;;;;;;;3.25;2.95;;;26.90;55.00;;;;;;5091812;28;20034;-56
2021/06/20 03:19:35;;;;;;;3.10;2.90;;;26.90;55.00;;;;;;5091325;28;20036;-53
2021/06/20 03:22:02;;;;;;;3.00;2.70;;;26.90;55.00;;;;;;5092138;28;20471;-57
2021/06/20 03:24:29;;;;;;;3.00;2.70;;;26.90;55.10;;;;;;5091753;28;20059;-61
2021/06/20 03:26:56;;;;;;;3.33;3.03;;;26.90;55.10;;;;;;5090824;28;20459;-58
2021/06/20 03:29:22;;;;;;;3.10;2.80;;;26.90;55.10;;;;;;5092126;28;20028;-58
2021/06/20 03:31:49;;;;;;;2.90;2.70;;;26.90;55.10;;;;;;5091461;28;20031;-59
2021/06/20 03:34:15;;;;;;;3.40;3.10;;;26.90;55.10;;;;;;5092571;28;20028;-59
2021/06/20 03:36:41;;;;;;;3.28;2.97;;;26.90;55.10;;;;;;5091635;28;20102;-59
2021/06/20 03:39:07;;;;;;;3.70;3.40;;;26.90;55.10;;;;;;5092844;28;20048;-58
2021/06/20 03:41:33;;;;;;;4.38;3.50;;;26.90;55.20;;;;;;5090295;28;20057;-58
2021/06/20 03:43:59;;;;;;;3.63;3.33;;;26.90;55.20;;;;;;5092365;28;20036;-61
2021/06/20 03:46:25;;;;;;;3.33;3.03;;;26.90;55.20;;;;;;5093787;28;20055;-60
2021/06/20 03:48:50;;;;;;;3.80;3.40;;;26.90;55.20;;;;;;5094464;28;20032;-59
2021/06/20 03:51:16;;;;;;;3.08;2.78;;;26.90;55.20;;;;;;5092438;28;20024;-59
2021/06/20 03:53:44;;;;;;;3.75;3.38;;;26.90;55.20;;;;;;5092865;28;20089;-59
2021/06/20 03:56:10;;;;;;;3.42;3.13;;;26.90;55.20;;;;;;5094012;28;20032;-59
2021/06/20 03:58:36;;;;;;;3.20;2.90;;;26.90;55.10;;;;;;5092557;28;20126;-59
2021/06/20 04:01:03;;;;;;;3.53;3.22;;;26.90;55.10;;;;;;5092333;28;20093;-57
2021/06/20 04:03:29;;;;;;;3.53;3.22;;;26.90;55.10;;;;;;5089480;28;20032;-57
2021/06/20 04:05:55;;;;;;;3.50;3.20;;;26.90;55.00;;;;;;5092652;28;20035;-58
2021/06/20 04:08:21;;;;;;;3.35;3.05;;;26.90;55.00;;;;;;5092558;28;20039;-58
2021/06/20 04:10:47;;;;;;;2.92;2.72;;;26.90;54.90;;;;;;5097494;28;20024;-58
2021/06/20 04:13:13;;;;;;;3.00;2.70;;;26.90;54.80;;;;;;5095710;28;20069;-57
2021/06/20 04:15:39;;;;;;;2.67;2.47;;;26.90;54.70;;;;;;5096539;28;20039;-57
2021/06/20 04:18:05;;;;;;;2.55;2.35;;;26.80;54.60;;;;;;5095675;28;20438;-59
2021/06/20 04:20:31;;;;;;;3.08;2.78;;;26.80;54.50;;;;;;5096442;28;20040;-56
2021/06/20 04:22:57;;;;;;;3.08;2.78;;;26.80;54.50;;;;;;5096102;28;20486;-59
2021/06/20 04:25:23;;;;;;;3.42;2.83;;;26.80;54.40;;;;;;5097927;28;20111;-59
2021/06/20 04:27:49;;;;;;;3.15;2.78;;;26.80;54.30;;;;;;5096114;28;20032;-60
2021/06/20 04:30:17;;;;;;;3.33;3.03;;;26.80;54.30;;;;;;5096616;28;20115;-58
2021/06/20 04:32:44;;;;;;;3.30;3.00;;;26.80;54.20;;;;;;5095159;28;20062;-57
2021/06/20 04:35:11;;;;;;;3.30;3.00;;;26.80;54.80;;;;;;5078012;28;20380;-59
2021/06/20 04:37:38;;;;;;;3.53;3.22;;;26.80;54.10;;;;;;5095819;28;20397;-55
2021/06/20 04:40:06;;;;;;;3.30;3.00;;;26.80;54.00;;;;;;5093719;28;20069;-58
2021/06/20 04:42:34;;;;;;;3.40;3.10;;;26.80;54.00;;;;;;5095361;28;20067;-58
2021/06/20 04:45:00;;;;;;;3.67;3.03;;;26.80;53.90;;;;;;5094665;28;20032;-58
2021/06/20 04:47:27;;;;;;;3.53;3.22;;;26.80;53.90;;;;;;5094473;28;20024;-57
2021/06/20 04:49:54;;;;;;;3.35;3.05;;;26.80;53.90;;;;;;5095055;28;20024;-59
2021/06/20 04:52:20;;;;;;;3.78;3.47;;;26.70;53.80;;;;;;5094576;28;20427;-56
2021/06/20 04:54:52;;;;;;;3.63;3.33;;;26.70;53.70;;;;;;5096074;28;20121;-57
2021/06/20 04:57:23;;;;;;;3.22;2.92;;;26.70;53.70;;;;;;5094477;28;20288;-60
2021/06/20 04:59:51;;;;;;;3.80;3.42;;;26.70;53.70;;;;;;5095219;28;20097;-58
2021/06/20 05:02:18;;;;;;;3.47;3.00;;;26.70;53.70;;;;;;5091356;28;20051;-57
2021/06/20 05:04:44;;;;;;;3.72;3.42;;;26.70;53.60;;;;;;5094877;28;20051;-59
2021/06/20 05:07:10;;;;;;;4.25;3.78;;;26.70;53.70;;;;;;5095545;28;20027;-57
2021/06/20 05:09:37;;;;;;;4.63;4.22;;;26.70;53.60;;;;;;5094444;28;20020;-57
2021/06/20 05:12:04;;;;;;;3.85;3.45;;;26.70;53.60;;;;;;5085666;28;20438;-59
2021/06/20 05:14:30;;;;;;;4.55;4.07;;;26.70;53.60;;;;;;5095095;28;20504;-59
2021/06/20 05:16:57;;;;;;;4.00;3.63;;;26.70;53.60;;;;;;5090901;28;20036;-59
2021/06/20 05:19:23;;;;;;;5.70;3.92;;;26.70;53.60;;;;;;5094260;28;20415;-53
2021/06/20 05:21:49;;;;;;;5.18;4.05;;;26.70;53.60;;;;;;5093603;28;20063;-58
2021/06/20 05:24:14;;;;;;;4.53;4.13;;;26.70;53.60;;;;;;5094882;28;20028;-58
2021/06/20 05:26:41;;;;;;;4.25;3.85;;;26.70;53.60;;;;;;5091784;28;20077;-60
2021/06/20 05:29:07;;;;;;;4.43;4.03;;;26.70;53.60;;;;;;5095048;28;20748;-58
2021/06/20 05:31:32;;;;;;;4.68;4.28;;;26.70;53.60;;;;;;5091592;28;20055;-60
2021/06/20 05:33:58;;;;;;;4.75;4.10;;;26.70;53.60;;;;;;5094567;28;20439;-56
2021/06/20 05:36:24;;;;;;;4.30;3.90;;;26.60;53.60;;;;;;5092797;28;20024;-59
2021/06/20 05:38:50;;;;;;;4.28;3.88;;;26.60;53.60;;;;;;5094186;28;20043;-59
2021/06/20 05:41:16;;;;;;;4.22;3.83;;;26.60;53.60;;;;;;5091580;28;20016;-59
2021/06/20 05:43:41;;;;;;;5.22;4.20;;;26.60;53.60;;;;;;5094579;28;20028;-60
2021/06/20 05:46:07;;;;;;;4.22;3.90;;;26.60;53.60;;;;;;5093806;28;20055;-56
2021/06/20 05:48:34;;;;;;;5.60;4.43;;;26.60;53.60;;;;;;5094114;28;20052;-59
2021/06/20 05:51:00;;;;;;;5.13;4.63;;;26.60;53.60;;;;;;5093241;28;20111;-58
2021/06/20 05:53:25;;;;;;;5.10;4.60;;;26.60;53.60;;;;;;5094150;28;20052;-59
2021/06/20 05:55:51;;;;;;;4.45;4.05;;;26.60;53.60;;;;;;5093532;28;20058;-56
2021/06/20 05:58:17;;;;;;;4.72;4.28;;;26.60;53.60;;;;;;5093697;28;20097;-54
2021/06/20 06:00:43;;;;;;;4.30;3.90;;;26.60;53.60;;;;;;5091654;28;20105;-58
2021/06/20 06:03:09;;;;;;;4.65;4.20;;;26.60;53.60;;;;;;5094006;28;20028;-57
2021/06/20 06:05:35;;;;;;;5.38;4.88;;;26.60;53.60;;;;;;5091448;28;20027;-60
2021/06/20 06:08:01;;;;;;;5.65;4.75;;;26.60;53.60;;;;;;5095025;28;20024;-59
2021/06/20 06:10:29;;;;;;;4.82;4.43;;;26.60;53.60;;;;;;5091836;28;20354;-60
2021/06/20 06:12:56;;;;;;;4.57;4.03;;;26.60;53.60;;;;;;5093928;28;20024;-57
2021/06/20 06:15:22;;;;;;;5.32;4.55;;;26.60;53.60;;;;;;5092317;28;20024;-55
2021/06/20 06:17:50;;;;;;;5.43;4.70;;;26.60;53.60;;;;;;5092932;28;20032;-59
2021/06/20 06:20:16;;;;;;;5.80;5.18;;;26.50;53.60;;;;;;5093319;28;20040;-61
2021/06/20 06:22:42;;;;;;;6.03;4.88;;;26.60;53.60;;;;;;5090267;28;20093;-52
2021/06/20 06:25:08;;;;;;;5.15;4.63;;;26.50;53.60;;;;;;5091817;28;20040;-57
2021/06/20 06:27:34;;;;;;;4.72;4.32;;;26.50;53.60;;;;;;5086252;28;20028;-59
2021/06/20 06:30:00;;;;;;;5.30;4.80;;;26.60;53.60;;;;;;5092506;28;20460;-59
2021/06/20 06:32:26;;;;;;;4.93;4.47;;;26.50;53.60;;;;;;5093086;28;20064;-59
2021/06/20 06:34:52;;;;;;;4.40;4.00;;;26.60;53.60;;;;;;5093982;28;20317;-60
2021/06/20 06:37:18;;;;;;;4.70;4.28;;;26.50;53.60;;;;;;5091024;28;20035;-54
2021/06/20 06:39:44;;;;;;;5.13;4.63;;;26.50;53.60;;;;;;5093024;28;20047;-59
2021/06/20 06:42:10;;;;;;;4.63;4.15;;;26.50;53.50;;;;;;5092197;28;20111;-60
2021/06/20 06:44:36;;;;;;;4.88;4.45;;;26.50;53.50;;;;;;5089998;28;20020;-61
2021/06/20 06:47:01;;;;;;;4.65;4.20;;;26.50;53.50;;;;;;5093498;28;20031;-59
2021/06/20 06:49:27;;;;;;;4.97;4.47;;;26.50;53.50;;;;;;5091603;28;20020;-59
2021/06/20 06:51:53;;;;;;;5.53;5.03;;;26.60;53.50;;;;;;5092063;28;20024;-58
2021/06/20 06:54:19;;;;;;;5.22;4.72;;;26.60;53.50;;;;;;5089187;28;20024;-55
2021/06/20 06:56:45;;;;;;;4.75;4.35;;;26.50;53.40;;;;;;5080989;28;20013;-59
2021/06/20 06:59:12;;;;;;;4.78;4.30;;;26.50;53.40;;;;;;5091689;28;20039;-56
2021/06/20 07:01:38;;;;;;;5.55;5.05;;;26.50;53.30;;;;;;5087220;28;20024;-57
2021/06/20 07:04:04;;;;;;;5.18;4.68;;;26.60;53.40;;;;;;5088954;28;20032;-56
2021/06/20 07:06:29;;;;;;;4.88;4.40;;;26.50;53.30;;;;;;5091288;28;20035;-53
2021/06/20 07:08:55;;;;;;;5.78;5.28;;;26.50;53.30;;;;;;5092881;28;20031;-60
2021/06/20 07:11:21;;;;;;;5.78;5.03;;;26.50;53.30;;;;;;5092641;28;20092;-63
2021/06/20 07:13:47;;;;;;;6.05;5.45;;;26.60;53.30;;;;;;5086509;28;20048;-56
2021/06/20 07:16:13;;;;;;;6.13;5.57;;;26.50;53.20;;;;;;5077838;28;20444;-59
2021/06/20 07:18:39;;;;;;;5.57;5.07;;;26.50;53.10;;;;;;5087531;28;20467;-61
2021/06/20 07:21:06;;;;;;;6.18;5.53;;;26.60;53.10;;;;;;5086562;28;20048;-60
2021/06/20 07:23:32;;;;;;;6.03;5.43;;;26.60;53.10;;;;;;5089875;28;20125;-58
2021/06/20 07:25:57;;;;;;;6.10;5.50;;;26.60;53.00;;;;;;5090235;28;20103;-61
2021/06/20 07:28:23;;;;;;;5.78;5.10;;;26.60;52.90;;;;;;5089062;28;20043;-64
2021/06/20 07:30:49;;;;;;;6.75;5.40;;;26.60;52.90;;;;;;5089261;28;20078;-62
2021/06/20 07:33:16;;;;;;;5.85;5.35;;;26.60;52.90;;;;;;5089472;28;21618;-63
2021/06/20 07:35:45;;;;;;;6.20;5.40;;;26.70;52.90;;;;;;5091819;28;20028;-61
2021/06/20 07:38:11;;;;;;;6.10;5.50;;;26.60;52.80;;;;;;5092945;28;20059;-61
2021/06/20 07:40:37;;;;;;;6.22;5.63;;;26.70;52.80;;;;;;5092181;28;20028;-61
2021/06/20 07:43:03;;;;;;;6.70;6.00;;;26.70;52.80;;;;;;5090306;28;20024;-60
2021/06/20 07:45:29;;;;;;;5.80;5.30;;;26.70;52.80;;;;;;5089029;28;20020;-62
2021/06/20 07:47:54;;;;;;;6.57;5.90;;;26.70;52.70;;;;;;5085535;28;20032;-60
2021/06/20 07:50:20;;;;;;;6.95;6.28;;;26.70;52.70;;;;;;5091094;28;21697;-62
2021/06/20 07:52:46;;;;;;;6.72;6.13;;;26.70;52.60;;;;;;5092977;28;20024;-64
2021/06/20 07:55:13;;;;;;;6.70;6.10;;;26.70;52.60;;;;;;5092197;28;20024;-63
2021/06/20 07:57:39;;;;;;;6.95;6.35;;;26.80;52.60;;;;;;5090533;28;20082;-62
2021/06/20 08:00:08;;;;;;;7.03;6.35;;;26.80;52.60;;;;;;5090420;28;20035;-58
2021/06/20 08:02:39;;;;;;;6.50;5.90;;;26.80;52.50;;;;;;5091653;28;20040;-63
2021/06/20 08:05:05;;;;;;;6.70;6.10;;;26.80;52.50;;;;;;5087192;28;20039;-62
2021/06/20 08:07:34;;;;;;;6.60;6.00;;;26.80;52.40;;;;;;5092342;28;20027;-62
2021/06/20 08:10:00;;;;;;;6.22;5.55;;;26.80;52.40;;;;;;5091859;28;20024;-62
2021/06/20 08:12:26;;;;;;;6.53;5.93;;;26.80;52.30;;;;;;5086467;28;20028;-63
2021/06/20 08:15:00;;;;;;;6.68;6.07;;;26.80;52.20;;;;;;5088555;28;20124;-58
2021/06/20 08:17:28;;;;;;;5.90;5.07;;;26.80;52.10;;;;;;5074085;28;20482;-64
2021/06/20 08:19:54;;;;;;;5.90;5.30;;;26.90;52.20;;;;;;5092240;28;20043;-61
2021/06/20 08:22:20;;;;;;;6.05;5.45;;;26.80;52.00;;;;;;5088526;28;20024;-60
2021/06/20 08:24:47;;;;;;;6.32;5.32;;;26.80;51.90;;;;;;5090148;28;20510;-61
2021/06/20 08:27:13;;;;;;;5.90;5.30;;;26.80;51.80;;;;;;5091562;28;20024;-59
2021/06/20 08:29:39;;;;;;;5.53;4.90;;;26.90;51.90;;;;;;5089152;28;20024;-63
2021/06/20 08:32:05;;;;;;;4.97;4.50;;;26.90;51.80;;;;;;5089028;28;20140;-61
2021/06/20 08:34:32;;;;;;;5.05;4.55;;;26.90;51.70;;;;;;5087632;28;20363;-64
2021/06/20 08:37:02;;;;;;;5.00;4.53;;;27.00;51.70;;;;;;5086783;28;20081;-61
2021/06/20 08:39:29;;;;;;;4.93;4.13;;;27.00;51.60;;;;;;5081928;28;20032;-63
2021/06/20 08:41:54;;;;;;;5.05;4.60;;;27.00;51.50;;;;;;5086995;28;20565;-58
2021/06/20 08:44:28;;;;;;;4.45;4.05;;;27.10;52.00;;;;;;5085733;28;20035;-60
2021/06/20 08:46:55;;;;;;;5.00;4.50;;;27.10;51.30;;;;;;5084195;28;20029;-59
2021/06/20 08:49:21;;;;;;;4.40;4.00;;;27.10;51.30;;;;;;5082340;28;20044;-53
2021/06/20 08:51:49;;;;;;;5.13;4.63;;;27.10;51.20;;;;;;5083392;28;20028;-57
2021/06/20 08:54:15;;;;;;;7.13;5.40;;;27.10;51.20;;;;;;5085125;28;20028;-55
2021/06/20 08:56:41;;;;;;;7.07;5.80;;;27.10;51.20;;;;;;5089967;28;20039;-58
2021/06/20 08:59:10;;;;;;;6.97;5.60;;;27.10;51.20;;;;;;5092083;28;20043;-58
2021/06/20 09:01:36;;;;;;;5.65;5.05;;;27.20;51.30;;;;;;5087380;28;20035;-55
2021/06/20 09:04:03;;;;;;;7.55;5.78;;;27.20;51.40;;;;;;5082124;28;20032;-55
2021/06/20 09:06:29;;;;;;;8.43;6.13;;;27.20;51.50;;;;;;5091442;28;20067;-53
2021/06/20 09:08:57;;;;;;;8.52;6.05;;;27.20;51.60;;;;;;5090652;28;20124;-58
2021/06/20 09:11:26;;;;;;;10.32;6.65;;;27.20;51.70;;;;;;5088261;28;20020;-55
2021/06/20 09:14:05;;;;;;;10.05;6.18;;;27.20;51.80;;;;;;5086122;28;20029;-56
2021/06/20 09:16:31;;;;;;;12.45;6.90;;;27.30;52.00;;;;;;5085164;28;20035;-59
2021/06/20 09:18:59;;;;;;;10.95;7.63;;;27.30;52.10;;;;;;5086936;28;20050;-57
2021/06/20 09:21:25;;;;;;;8.75;5.68;;;27.30;52.00;;;;;;5089395;28;20039;-56
2021/06/20 09:23:56;;;;;;;8.82;7.07;;;27.30;51.80;;;;;;5094631;28;20042;-51
2021/06/20 09:26:41;;;;;;;9.80;6.30;;;27.30;51.90;;;;;;5092680;28;20042;-55
2021/06/20 09:29:09;;;;;;;7.80;5.88;;;27.30;51.70;;;;;;5093533;28;20082;-58
2021/06/20 09:31:53;;;;;;;7.10;5.50;;;27.30;51.60;;;;;;5092538;28;20082;-55
2021/06/20 09:34:20;;;;;;;7.88;5.95;;;27.30;51.50;;;;;;5088835;28;20024;-57
2021/06/20 09:36:47;;;;;;;8.40;5.18;;;27.30;50.80;;;;;;5092213;28;20434;-59
2021/06/20 09:39:26;;;;;;;8.30;5.88;;;27.10;50.20;;;;;;5090059;28;20537;-60
2021/06/20 09:41:58;;;;;;;6.93;5.65;;;26.90;50.50;;;;;;5086448;28;20032;-61
2021/06/20 09:44:35;;;;;;;8.80;6.43;;;26.70;51.50;;;;;;5086711;28;20089;-57
2021/06/20 09:47:01;;;;;;;12.38;6.63;;;26.60;51.70;;;;;;5082246;28;20036;-60
2021/06/20 09:49:29;;;;;;;10.13;6.78;;;26.50;52.70;;;;;;5084615;28;20020;-58
2021/06/20 09:51:59;;;;;;;8.63;6.15;;;26.50;52.50;;;;;;5084702;28;20039;-59
2021/06/20 09:54:33;;;;;;;6.72;5.07;;;26.30;51.80;;;;;;5083885;28;20020;-58
2021/06/20 09:56:59;;;;;;;6.75;4.78;;;26.20;51.50;;;;;;5090070;28;20028;-58
2021/06/20 09:59:33;;;;;;;6.70;4.55;;;26.00;51.70;;;;;;5092705;28;20367;-52
2021/06/20 10:02:12;;;;;;;;;;;25.90;52.00;;;;;;5091672;28;20073;-58
2021/06/20 10:04:40;;;;;;;4.43;3.63;;;25.80;52.20;;;;;;5091482;28;20350;-57
2021/06/20 10:07:07;;;;;;;7.28;4.95;;;25.80;52.90;;;;;;5084713;28;20367;-53
2021/06/20 10:09:36;;;;;;;7.20;5.28;;;25.70;53.40;;;;;;5088037;28;20028;-55
2021/06/20 10:12:04;;;;;;;9.75;6.63;;;25.70;53.00;;;;;;5087736;28;20035;-52
2021/06/20 10:14:32;;;;;;;9.70;7.35;;;25.60;52.90;;;;;;5082869;28;20032;-47
2021/06/20 10:17:25;;;;;;;10.23;7.32;;;25.60;53.80;;;;;;5086792;28;20091;-51
2021/06/20 10:19:56;;;;;;;7.45;6.28;;;25.50;54.20;;;;;;5084216;28;20048;-54
2021/06/20 10:22:21;;;;;;;6.78;5.22;;;25.50;53.30;;;;;;5085503;28;20040;-55
2021/06/20 10:24:50;;;;;;;6.50;4.63;;;25.40;53.70;;;;;;5089582;28;20442;-55
2021/06/20 10:27:44;;;;;;;4.63;4.00;;;25.40;53.70;;;;;;5090776;28;20032;-60
2021/06/20 10:30:21;;;;;;;4.22;3.60;;;25.30;53.30;;;;;;5072805;28;20032;-56
2021/06/20 10:32:49;;;;;;;4.53;3.47;;;25.30;54.10;;;;;;5092322;28;20443;-57
2021/06/20 10:35:23;;;;;;;2.85;2.65;;;25.30;54.30;;;;;;5091493;28;20032;-53
2021/06/20 10:37:51;;;;;;;3.08;2.53;;;25.50;54.20;;;;;;5093519;28;20040;-57
2021/06/20 10:40:19;;;;;;;2.67;2.30;;;25.60;54.00;;;;;;5093964;28;20019;-55
2021/06/20 10:42:46;;;;;;;4.47;2.53;;;25.70;53.70;;;;;;5092847;28;20024;-54
2021/06/20 10:45:12;;;;;;;2.92;2.47;;;25.90;53.50;;;;;;5092522;28;20027;-58
2021/06/20 10:47:42;;;;;;;3.60;2.30;;;25.90;53.10;;;;;;5093569;28;20031;-55
2021/06/20 10:50:11;;;;;;;3.05;2.30;;;26.10;52.90;;;;;;5088911;28;20024;-55
2021/06/20 10:52:39;;;;;;;2.60;2.40;;;26.20;52.70;;;;;;5092341;28;20024;-55
2021/06/20 10:55:14;;;;;;;2.30;2.10;;;26.30;52.50;;;;;;5093496;28;20370;-55
2021/06/20 10:57:53;;;;;;;2.92;2.33;;;26.30;52.20;;;;;;5093505;28;20334;-58
2021/06/20 11:00:34;;;;;;;2.70;2.40;;;26.40;52.00;;;;;;5083290;28;20384;-56
2021/06/20 11:03:26;;;;;;;3.47;2.05;;;26.50;51.70;;;;;;5086724;28;20096;-58
2021/06/20 11:05:57;;;;;;;2.33;2.13;;;26.50;51.40;;;;;;5085679;28;20053;-54
2021/06/20 11:08:31;;;;;;;2.53;2.28;;;26.60;51.40;;;;;;5086080;28;20020;-55
2021/06/20 11:11:13;;;;;;;2.28;2.03;;;26.60;51.20;;;;;;5084156;28;20039;-54
2021/06/20 11:14:01;;;;;;;2.55;2.13;;;26.70;51.20;;;;;;5085403;28;20408;-57
2021/06/20 11:16:35;;;;;;;2.30;2.10;;;26.70;51.20;;;;;;5085862;28;20043;-58
2021/06/20 11:19:17;;;;;;;2.28;2.08;;;26.70;51.10;;;;;;5086947;28;20071;-57
2021/06/20 11:21:58;;;;;;;2.53;2.33;;;26.80;50.90;;;;;;5085539;28;20531;-55
2021/06/20 11:24:28;;;;;;;2.50;2.28;;;26.80;51.30;;;;;;5089490;28;20031;-55
2021/06/20 11:26:57;;;;;;;1.98;1.77;;;26.80;50.60;;;;;;5091345;28;20410;-53
2021/06/20 11:29:24;;;;;;;1.95;1.83;;;26.80;50.50;;;;;;5093990;28;20042;-59
2021/06/20 11:31:53;;;;;;;2.53;2.28;;;26.90;51.10;;;;;;5092850;28;20440;-57
2021/06/20 11:34:20;;;;;;;2.47;2.08;;;26.90;50.50;;;;;;5085086;28;20325;-54
2021/06/20 11:36:46;;;;;;;2.15;1.95;;;26.90;50.40;;;;;;5082203;28;20020;-57
2021/06/20 11:39:14;;;;;;;2.55;2.10;;;27.00;50.20;;;;;;5078536;28;20028;-58
2021/06/20 11:41:43;;;;;;;2.45;2.25;;;27.00;49.90;;;;;;5083221;28;20089;-54
2021/06/20 11:44:09;;;;;;;2.50;2.20;;;27.00;49.70;;;;;;5086597;28;20016;-56
2021/06/20 11:46:35;;;;;;;2.10;1.90;;;27.00;49.60;;;;;;5084229;28;20043;-54
2021/06/20 11:49:04;;;;;;;2.60;2.40;;;27.00;49.50;;;;;;5085061;28;20147;-54
2021/06/20 11:51:35;;;;;;;1.92;1.80;;;27.10;49.40;;;;;;5085547;28;20047;-53
2021/06/20 11:54:24;;;;;;;2.58;2.20;;;27.10;49.30;;;;;;5078203;28;20025;-55
2021/06/20 11:56:56;;;;;;;2.35;2.08;;;27.10;49.20;;;;;;5078750;28;20343;-58
2021/06/20 11:59:40;;;;;;;2.20;2.00;;;27.10;49.20;;;;;;5085924;28;20119;-58
2021/06/20 12:02:10;;;;;;;2.28;2.08;;;27.20;49.00;;;;;;5090383;28;20489;-54
2021/06/20 12:04:41;;;;;;;2.10;1.90;;;27.20;48.90;;;;;;5090529;28;20034;-57
2021/06/20 12:07:09;;;;;;;4.10;2.20;;;27.20;48.60;;;;;;5091748;28;20047;-58
2021/06/20 12:09:39;;;;;;;2.15;1.95;;;27.20;48.60;;;;;;5087554;28;20043;-57
2021/06/20 12:12:11;;;;;;;2.15;1.95;;;27.20;48.50;;;;;;5080151;28;20028;-62
2021/06/20 12:14:37;;;;;;;2.55;2.35;;;27.30;48.60;;;;;;5076798;28;20028;-64
2021/06/20 12:17:05;;;;;;;2.28;2.05;;;27.30;48.60;;;;;;5087597;28;20032;-64
2021/06/20 12:19:36;;;;;;;2.42;2.15;;;27.30;48.50;;;;;;5081558;28;20036;-62
2021/06/20 12:22:13;;;;;;;2.90;2.00;;;27.30;48.40;;;;;;5087982;28;20073;-63
2021/06/20 12:24:59;;;;;;;2.40;2.20;;;27.30;48.30;;;;;;5082508;28;20036;-63
2021/06/20 12:27:37;;;;;;;2.00;1.80;;;27.40;48.20;;;;;;5079592;28;20368;-63
2021/06/20 12:30:17;;;;;;;2.50;2.22;;;27.40;48.10;;;;;;5087494;28;20105;-62
2021/06/20 12:32:44;;;;;;;2.22;2.03;;;27.30;48.00;;;;;;5086084;28;20025;-65
2021/06/20 12:35:25;;;;;;;2.30;2.00;;;27.30;48.00;;;;;;5089573;28;20062;-62
2021/06/20 12:37:54;;;;;;;2.17;1.98;;;27.30;47.90;;;;;;5092381;28;20093;-62
2021/06/20 12:40:24;;;;;;;2.22;1.98;;;27.30;47.90;;;;;;5088145;28;20337;-61
2021/06/20 12:42:53;;;;;;;2.22;1.90;;;27.30;47.80;;;;;;5089527;28;20024;-66
2021/06/20 12:45:33;;;;;;;2.15;1.95;;;27.30;47.70;;;;;;5086104;28;20112;-64
2021/06/20 12:48:16;;;;;;;2.08;1.88;;;27.30;47.60;;;;;;5082541;28;20121;-61
2021/06/20 12:50:50;;;;;;;2.20;2.00;;;27.30;47.60;;;;;;5088268;28;20428;-61
2021/06/20 12:53:34;;;;;;;2.40;2.20;;;27.40;47.70;;;;;;5083146;28;20032;-64